Time;durP1;ratioP1;P1;durP2;ratioP2;P2;SDS_P1;SDS_P2;PMS_P1;PMS_P2;Temp;Humidity;BMP_temperature;BMP_pressure;BME280_temperature;BME280_humidity;BME280_pressure;Samples;Min_cycle;Max_cycle;Signal;HPM_P1;HPM_P2
2023/08/17 00:00:18;;;;;;;8.63;2.95;;;15.80;99.90;;;;;;5064252;28;20047;-81
2023/08/17 00:02:43;;;;;;;7.85;3.00;;;15.80;99.90;;;;;;5085126;28;20549;-81
2023/08/17 00:05:09;;;;;;;5.32;2.95;;;15.70;99.90;;;;;;5083098;28;20386;-80
2023/08/17 00:07:36;;;;;;;11.40;3.72;;;15.80;99.90;;;;;;5063674;28;20537;-81
2023/08/17 00:10:02;;;;;;;5.75;3.10;;;15.70;99.90;;;;;;5065593;28;20115;-82
2023/08/17 00:12:28;;;;;;;7.95;3.03;;;15.80;99.90;;;;;;5082189;28;20491;-82
2023/08/17 00:14:54;;;;;;;9.18;3.30;;;15.70;99.90;;;;;;5064709;28;20032;-82
2023/08/17 00:17:20;;;;;;;7.10;3.10;;;15.70;99.90;;;;;;5043705;28;20044;-82
2023/08/17 00:19:46;;;;;;;8.73;3.05;;;15.70;99.90;;;;;;5084155;28;20044;-82
2023/08/17 00:22:11;;;;;;;9.00;3.10;;;15.70;99.90;;;;;;5079071;28;20506;-81
2023/08/17 00:24:37;;;;;;;7.20;2.85;;;15.60;99.90;;;;;;5082002;28;20048;-82
2023/08/17 00:27:03;;;;;;;5.47;3.30;;;15.60;99.90;;;;;;5065080;28;20040;-81
2023/08/17 00:29:30;;;;;;;14.52;3.45;;;15.70;99.90;;;;;;5077952;28;20444;-82
2023/08/17 00:31:55;;;;;;;9.65;3.63;;;15.60;99.90;;;;;;5078216;28;20068;-82
2023/08/17 00:34:21;;;;;;;7.18;3.47;;;15.60;99.90;;;;;;5082207;28;20132;-82
2023/08/17 00:36:46;;;;;;;6.70;3.50;;;15.60;99.90;;;;;;5062492;28;20063;-83
2023/08/17 00:39:14;;;;;;;5.95;3.72;;;15.50;99.90;;;;;;5084628;28;20052;-82
2023/08/17 00:41:40;;;;;;;5.90;3.35;;;15.50;99.90;;;;;;5083860;28;20046;-82
2023/08/17 00:44:06;;;;;;;8.15;3.50;;;15.50;99.90;;;;;;5085890;28;20121;-82
2023/08/17 00:46:32;;;;;;;8.10;3.35;;;15.40;99.90;;;;;;5066905;28;20066;-82
2023/08/17 00:48:58;;;;;;;6.68;3.42;;;15.40;99.90;;;;;;5088866;28;20036;-81
2023/08/17 00:51:25;;;;;;;7.32;3.10;;;15.40;99.90;;;;;;5085493;28;20123;-81
2023/08/17 00:53:58;;;;;;;8.27;3.33;;;15.30;99.90;;;;;;5065306;28;20044;-81
2023/08/17 00:56:23;;;;;;;10.95;3.20;;;15.40;99.90;;;;;;5064133;28;20163;-82
2023/08/17 00:58:50;;;;;;;6.18;3.35;;;15.30;99.90;;;;;;5067075;28;20079;-82
2023/08/17 01:01:16;;;;;;;6.53;3.35;;;15.30;99.90;;;;;;5085493;28;20506;-81
2023/08/17 01:03:42;;;;;;;10.07;3.67;;;15.30;99.90;;;;;;5059872;28;20059;-80
2023/08/17 01:06:09;;;;;;;9.02;3.05;;;15.30;99.90;;;;;;5084924;28;20105;-81
2023/08/17 01:08:38;;;;;;;7.93;3.47;;;15.30;99.90;;;;;;5083816;28;20217;-82
2023/08/17 01:11:32;;;;;;;8.38;3.00;;;15.30;99.90;;;;;;5081287;28;20048;-81
2023/08/17 01:14:26;;;;;;;6.50;3.20;;;15.30;99.90;;;;;;5086234;28;20056;-81
2023/08/17 01:17:00;;;;;;;9.15;3.20;;;15.20;99.90;;;;;;5064829;28;20652;-82
2023/08/17 01:19:27;;;;;;;9.20;3.10;;;15.30;99.90;;;;;;5065303;28;20579;-82
2023/08/17 01:22:02;;;;;;;6.47;3.03;;;15.30;99.90;;;;;;5084991;28;20035;-82
2023/08/17 01:24:28;;;;;;;8.02;2.90;;;15.30;99.90;;;;;;5047733;28;20044;-81
2023/08/17 01:26:54;;;;;;;6.22;2.88;;;15.20;99.90;;;;;;5081862;28;20051;-82
2023/08/17 01:29:20;;;;;;;5.63;2.65;;;15.20;99.90;;;;;;5084319;28;20698;-81
2023/08/17 01:32:06;;;;;;;10.93;3.67;;;15.30;99.90;;;;;;5065080;28;20366;-81
2023/08/17 01:34:41;;;;;;;9.30;2.92;;;15.20;99.90;;;;;;5082823;28;20555;-81
2023/08/17 01:37:08;;;;;;;5.90;2.85;;;15.20;99.90;;;;;;5076217;28;20037;-80
2023/08/17 01:39:38;;;;;;;9.30;3.30;;;15.20;99.90;;;;;;5085782;28;20564;-81
2023/08/17 01:42:06;;;;;;;7.15;2.80;;;15.20;99.90;;;;;;5049899;28;20055;-82
2023/08/17 01:44:32;;;;;;;6.55;3.22;;;15.20;99.90;;;;;;5087434;28;20363;-83
2023/08/17 01:46:58;;;;;;;8.35;3.15;;;15.20;99.90;;;;;;5062351;28;20127;-82
2023/08/17 01:49:24;;;;;;;10.98;3.10;;;15.20;99.90;;;;;;5048918;28;20398;-82
2023/08/17 01:51:49;;;;;;;7.18;3.30;;;15.10;99.90;;;;;;5088308;28;20052;-82
2023/08/17 01:54:15;;;;;;;8.48;2.60;;;15.10;99.90;;;;;;5068502;28;20070;-82
2023/08/17 01:56:41;;;;;;;7.63;3.17;;;15.20;99.90;;;;;;5084334;28;20047;-82
2023/08/17 01:59:06;;;;;;;6.57;3.10;;;15.10;99.90;;;;;;5067065;28;20036;-82
2023/08/17 02:01:32;;;;;;;6.03;3.17;;;15.20;99.90;;;;;;5048948;28;20138;-83
2023/08/17 02:03:59;;;;;;;8.93;2.80;;;15.10;99.90;;;;;;5084268;28;20053;-83
2023/08/17 02:06:25;;;;;;;7.30;2.78;;;15.10;99.90;;;;;;5047428;28;20101;-83
2023/08/17 02:08:51;;;;;;;8.73;2.97;;;15.10;99.90;;;;;;5079430;28;20044;-83
2023/08/17 02:11:17;;;;;;;5.60;2.90;;;15.10;99.90;;;;;;5066469;28;20040;-83
2023/08/17 02:13:43;;;;;;;12.15;3.30;;;15.10;99.90;;;;;;5080126;28;20051;-83
2023/08/17 02:16:08;;;;;;;9.07;3.13;;;15.10;99.90;;;;;;5066257;28;20555;-82
2023/08/17 02:18:34;;;;;;;9.02;3.15;;;15.10;99.90;;;;;;5048718;28;20385;-83
2023/08/17 02:21:00;;;;;;;7.50;3.00;;;15.00;99.90;;;;;;5084231;28;20399;-82
2023/08/17 02:23:26;;;;;;;9.25;3.58;;;15.10;99.90;;;;;;5081149;28;20043;-82
2023/08/17 02:25:51;;;;;;;7.90;3.20;;;15.00;99.90;;;;;;5083090;28;20495;-83
2023/08/17 02:28:17;;;;;;;8.65;3.25;;;15.00;99.90;;;;;;5066535;28;20040;-83
2023/08/17 02:30:43;;;;;;;9.23;3.50;;;15.00;99.90;;;;;;5061959;28;20127;-84
2023/08/17 02:33:09;;;;;;;6.35;3.50;;;15.00;99.90;;;;;;5083716;28;20521;-84
2023/08/17 02:35:35;;;;;;;7.38;3.75;;;15.10;99.90;;;;;;5084145;28;20044;-83
2023/08/17 02:38:00;;;;;;;9.95;3.83;;;15.10;99.90;;;;;;5049180;28;20083;-84
2023/08/17 02:40:26;;;;;;;11.40;3.70;;;15.10;99.90;;;;;;5086362;28;20052;-83
2023/08/17 02:42:52;;;;;;;6.15;3.30;;;15.00;99.90;;;;;;5065870;28;20122;-83
2023/08/17 02:45:17;;;;;;;10.20;3.25;;;15.00;99.90;;;;;;5049175;28;20071;-82
2023/08/17 02:47:43;;;;;;;8.30;3.72;;;15.00;99.90;;;;;;5065919;28;20044;-83
2023/08/17 02:50:10;;;;;;;11.18;3.75;;;15.00;99.90;;;;;;5065636;28;20116;-80
2023/08/17 02:52:35;;;;;;;8.60;3.45;;;15.00;99.90;;;;;;5050305;28;20045;-83
2023/08/17 02:55:01;;;;;;;9.35;3.90;;;15.00;99.90;;;;;;5060863;28;20462;-83
2023/08/17 02:57:27;;;;;;;6.97;4.20;;;14.90;99.90;;;;;;5042868;28;20476;-82
2023/08/17 02:59:52;;;;;;;7.50;3.72;;;15.00;99.90;;;;;;5083537;28;20044;-82
2023/08/17 03:02:18;;;;;;;8.30;3.45;;;14.90;99.90;;;;;;5061890;28;20150;-82
2023/08/17 03:04:44;;;;;;;7.28;3.70;;;15.00;99.90;;;;;;5061016;28;20044;-83
2023/08/17 03:07:09;;;;;;;9.48;3.85;;;15.00;99.90;;;;;;5050731;28;20056;-82
2023/08/17 03:09:35;;;;;;;8.15;4.03;;;15.00;99.90;;;;;;5081174;28;20052;-82
2023/08/17 03:12:00;;;;;;;6.35;3.42;;;14.90;99.90;;;;;;5067039;28;21374;-74
2023/08/17 03:14:26;;;;;;;10.50;3.90;;;15.00;99.90;;;;;;5084815;28;20047;-82
2023/08/17 03:16:52;;;;;;;5.88;3.25;;;14.90;99.90;;;;;;5065140;28;20123;-82
2023/08/17 03:19:17;;;;;;;6.78;3.28;;;15.00;99.90;;;;;;5065654;27;20548;-82
2023/08/17 03:21:43;;;;;;;8.57;3.28;;;14.90;99.90;;;;;;5067878;28;20048;-84
2023/08/17 03:24:09;;;;;;;9.02;3.80;;;15.00;99.90;;;;;;5048158;28;20043;-84
2023/08/17 03:26:34;;;;;;;10.68;3.70;;;14.90;99.90;;;;;;5085897;28;20044;-85
2023/08/17 03:29:00;;;;;;;8.10;3.33;;;14.90;99.90;;;;;;5080787;28;20055;-85
2023/08/17 03:31:26;;;;;;;6.80;3.67;;;14.90;99.90;;;;;;5078619;28;20048;-84
2023/08/17 03:33:51;;;;;;;7.95;4.10;;;15.00;99.90;;;;;;5064303;28;20051;-85
2023/08/17 03:36:17;;;;;;;10.35;3.92;;;15.00;99.90;;;;;;5063338;28;20871;-84
2023/08/17 03:38:43;;;;;;;9.88;3.83;;;14.90;99.90;;;;;;5066278;28;20124;-84
2023/08/17 03:41:09;;;;;;;9.55;3.95;;;14.90;99.90;;;;;;5060554;28;20041;-83
2023/08/17 03:43:34;;;;;;;8.05;4.13;;;14.90;99.90;;;;;;5081366;28;20462;-85
2023/08/17 03:46:01;;;;;;;6.68;3.80;;;14.90;99.90;;;;;;5063025;28;20037;-85
2023/08/17 03:48:27;;;;;;;11.85;4.15;;;14.90;99.90;;;;;;5046498;28;20040;-84
2023/08/17 03:50:54;;;;;;;10.30;4.35;;;14.90;99.90;;;;;;5083215;28;20047;-83
2023/08/17 03:53:21;;;;;;;11.88;4.32;;;14.90;99.90;;;;;;5077413;28;20121;-85
2023/08/17 03:55:50;;;;;;;6.50;4.28;;;14.90;99.90;;;;;;5081378;28;20191;-85
2023/08/17 03:58:17;;;;;;;10.00;4.13;;;14.90;99.90;;;;;;5065622;28;20032;-86
2023/08/17 04:00:51;;;;;;;9.70;4.20;;;14.90;99.90;;;;;;5048609;28;20059;-82
2023/08/17 04:03:19;;;;;;;7.57;4.30;;;14.80;99.90;;;;;;5081064;28;20043;-83
2023/08/17 04:05:44;;;;;;;9.27;4.40;;;14.80;99.90;;;;;;5085412;28;20044;-84
2023/08/17 04:08:10;;;;;;;9.68;3.97;;;14.90;99.90;;;;;;5083536;28;20044;-83
2023/08/17 04:10:36;;;;;;;6.50;4.25;;;14.80;99.90;;;;;;5083892;28;20046;-83
2023/08/17 04:13:01;;;;;;;7.07;3.95;;;14.80;99.90;;;;;;5063349;28;20040;-81
2023/08/17 04:15:27;;;;;;;8.70;4.40;;;14.80;99.90;;;;;;5065818;28;20427;-86
2023/08/17 04:17:52;;;;;;;7.65;4.07;;;14.80;99.90;;;;;;5084256;28;20044;-82
2023/08/17 04:20:18;;;;;;;7.30;4.10;;;14.80;99.90;;;;;;5079592;27;20134;-81
2023/08/17 04:22:44;;;;;;;8.77;4.40;;;14.80;99.90;;;;;;5083890;28;20463;-83
2023/08/17 04:25:10;;;;;;;7.80;3.47;;;14.80;99.90;;;;;;5083719;28;20055;-82
2023/08/17 04:27:36;;;;;;;8.45;3.70;;;14.90;99.90;;;;;;5064209;28;20051;-83
2023/08/17 04:30:02;;;;;;;9.93;3.95;;;14.80;99.90;;;;;;5080104;28;20404;-82
2023/08/17 04:32:28;;;;;;;7.13;3.60;;;14.80;99.90;;;;;;5078418;28;20514;-83
2023/08/17 04:34:53;;;;;;;5.07;3.20;;;14.90;99.90;;;;;;5083061;28;20253;-83
2023/08/17 04:37:19;;;;;;;8.32;3.63;;;14.90;99.90;;;;;;5064250;28;20435;-83
2023/08/17 04:39:45;;;;;;;8.10;3.33;;;15.00;99.90;;;;;;5079556;28;20048;-82
2023/08/17 04:42:10;;;;;;;8.68;3.50;;;15.00;99.90;;;;;;5077878;28;20032;-83
2023/08/17 04:44:36;;;;;;;9.52;3.53;;;15.00;99.90;;;;;;5084536;28;20048;-84
2023/08/17 04:47:02;;;;;;;7.10;3.63;;;15.10;99.90;;;;;;5066296;28;20040;-81
2023/08/17 04:49:28;;;;;;;7.65;3.97;;;15.10;99.90;;;;;;5081994;28;20048;-82
2023/08/17 04:51:53;;;;;;;10.15;3.90;;;15.10;99.90;;;;;;5084373;28;20047;-82
2023/08/17 04:54:19;;;;;;;6.72;3.88;;;15.10;99.90;;;;;;5082702;28;20545;-82
2023/08/17 04:56:45;;;;;;;6.07;3.90;;;15.20;99.90;;;;;;5042194;28;20044;-82
2023/08/17 04:59:10;;;;;;;7.55;3.72;;;15.10;99.90;;;;;;5058593;28;20043;-82
2023/08/17 05:01:37;;;;;;;8.07;4.00;;;15.20;99.90;;;;;;5081191;28;20062;-82
2023/08/17 05:04:03;;;;;;;6.50;3.70;;;15.30;99.90;;;;;;5063645;28;20426;-80
2023/08/17 05:06:29;;;;;;;8.10;3.50;;;15.20;99.90;;;;;;5060262;28;20040;-83
2023/08/17 05:08:55;;;;;;;6.82;4.10;;;15.30;99.90;;;;;;5062318;28;20055;-83
2023/08/17 05:11:20;;;;;;;7.60;3.78;;;15.40;99.90;;;;;;5056695;28;20091;-82
2023/08/17 05:13:46;;;;;;;8.25;3.55;;;15.40;99.90;;;;;;5061303;28;20404;-83
2023/08/17 05:16:12;;;;;;;5.93;3.15;;;15.50;99.90;;;;;;5061911;28;20049;-82
2023/08/17 05:18:37;;;;;;;8.75;3.05;;;15.50;99.90;;;;;;5083936;28;20052;-83
2023/08/17 05:21:03;;;;;;;7.53;2.90;;;15.60;99.90;;;;;;5079147;28;20036;-83
2023/08/17 05:23:29;;;;;;;6.72;2.80;;;15.70;99.90;;;;;;5065173;28;20406;-83
2023/08/17 05:25:55;;;;;;;5.13;2.40;;;15.70;99.90;;;;;;5079007;28;20036;-83
2023/08/17 05:28:20;;;;;;;10.32;3.45;;;15.80;99.90;;;;;;5086941;28;20062;-82
2023/08/17 05:30:46;;;;;;;6.55;1.98;;;15.80;99.90;;;;;;5085383;28;20036;-82
2023/08/17 05:33:12;;;;;;;7.63;2.00;;;16.00;99.90;;;;;;5082804;28;20404;-81
2023/08/17 05:35:38;;;;;;;6.65;2.30;;;16.00;99.90;;;;;;5083424;28;20046;-82
2023/08/17 05:38:04;;;;;;;3.92;1.80;;;16.20;99.90;;;;;;5047758;28;20045;-82
2023/08/17 05:40:33;;;;;;;5.95;1.88;;;16.30;99.90;;;;;;5050982;28;20117;-83
2023/08/17 05:42:58;;;;;;;4.25;1.70;;;16.40;99.90;;;;;;5049465;28;20035;-83
2023/08/17 05:45:24;;;;;;;5.63;1.58;;;16.50;99.90;;;;;;5082562;28;20377;-83
2023/08/17 05:47:49;;;;;;;6.68;1.90;;;16.60;99.90;;;;;;5081257;28;20055;-83
2023/08/17 05:50:15;;;;;;;7.57;2.15;;;16.60;99.90;;;;;;5078986;28;20051;-81
2023/08/17 05:52:41;;;;;;;3.30;1.80;;;16.70;99.90;;;;;;5086275;28;20044;-81
2023/08/17 05:55:07;;;;;;;4.82;1.50;;;16.60;99.90;;;;;;5084408;28;20032;-81
2023/08/17 05:57:33;;;;;;;5.07;1.58;;;16.60;99.90;;;;;;5066605;28;20113;-82
2023/08/17 05:59:59;;;;;;;4.55;1.88;;;16.70;99.90;;;;;;5052100;28;20085;-82
2023/08/17 06:02:25;;;;;;;5.97;1.90;;;16.80;99.90;;;;;;5078987;28;20043;-83
2023/08/17 06:04:50;;;;;;;4.85;2.05;;;17.00;99.90;;;;;;5085011;28;20040;-82
2023/08/17 06:07:16;;;;;;;4.60;1.50;;;17.10;99.90;;;;;;5079836;28;20066;-81
2023/08/17 06:09:42;;;;;;;5.13;1.52;;;17.20;99.90;;;;;;5082479;28;20094;-81
2023/08/17 06:12:07;;;;;;;5.45;1.67;;;17.20;99.90;;;;;;5059733;28;20047;-80
2023/08/17 06:14:34;;;;;;;5.00;1.80;;;17.20;99.90;;;;;;5080302;28;21679;-81
2023/08/17 06:17:00;;;;;;;4.38;1.70;;;17.20;99.90;;;;;;5079543;28;20039;-81
2023/08/17 06:19:26;;;;;;;5.22;1.67;;;17.10;99.90;;;;;;5061704;28;20549;-80
2023/08/17 06:21:51;;;;;;;5.03;2.28;;;17.10;99.90;;;;;;5066764;28;20044;-80
2023/08/17 06:24:18;;;;;;;3.30;1.50;;;17.00;99.90;;;;;;5084447;28;20045;-81
2023/08/17 06:26:45;;;;;;;5.75;1.70;;;17.10;99.90;;;;;;5062102;28;20066;-81
2023/08/17 06:29:11;;;;;;;6.55;1.85;;;17.00;99.90;;;;;;5081887;28;20038;-80
2023/08/17 06:31:37;;;;;;;3.97;1.67;;;17.00;99.90;;;;;;5080443;28;20123;-80
2023/08/17 06:34:03;;;;;;;7.47;1.75;;;17.00;99.90;;;;;;5082642;28;20048;-80
2023/08/17 06:36:32;;;;;;;4.53;1.60;;;17.10;99.90;;;;;;5066348;28;20451;-80
2023/08/17 06:38:59;;;;;;;3.78;1.60;;;17.30;99.90;;;;;;5082717;28;20055;-82
2023/08/17 06:41:25;;;;;;;4.05;1.50;;;17.60;99.90;;;;;;5079568;28;20442;-77
2023/08/17 06:43:51;;;;;;;4.22;1.58;;;17.80;99.90;;;;;;5071763;28;20487;-81
2023/08/17 06:46:19;;;;;;;9.80;1.90;;;18.00;99.90;;;;;;5046924;28;20047;-81
2023/08/17 06:48:45;;;;;;;5.85;2.08;;;18.20;99.90;;;;;;5061289;28;20036;-80
2023/08/17 06:51:11;;;;;;;7.57;1.73;;;18.30;99.90;;;;;;5078362;28;20521;-79
2023/08/17 06:53:36;;;;;;;7.22;1.80;;;18.40;99.90;;;;;;5046985;28;20127;-81
2023/08/17 06:56:02;;;;;;;4.47;1.35;;;18.50;99.90;;;;;;5066068;28;20127;-79
2023/08/17 06:58:28;;;;;;;6.55;1.92;;;18.70;99.90;;;;;;5087445;28;20406;-80
2023/08/17 07:00:53;;;;;;;4.45;1.70;;;18.80;99.90;;;;;;5068739;28;20036;-79
2023/08/17 07:03:20;;;;;;;8.35;1.70;;;18.90;99.90;;;;;;5072074;28;20499;-80
2023/08/17 07:05:46;;;;;;;4.35;1.45;;;19.00;99.90;;;;;;5082477;28;20542;-82
2023/08/17 07:08:11;;;;;;;5.88;1.80;;;19.00;99.90;;;;;;5058748;28;20043;-81
2023/08/17 07:10:39;;;;;;;5.45;2.08;;;19.00;99.90;;;;;;5055368;28;20713;-80
2023/08/17 07:13:04;;;;;;;8.60;1.52;;;18.90;99.90;;;;;;5080119;28;20371;-77
2023/08/17 07:15:32;;;;;;;8.13;2.08;;;18.80;99.90;;;;;;5063332;28;20047;-80
2023/08/17 07:17:57;;;;;;;3.85;1.50;;;18.80;99.90;;;;;;5068114;28;20475;-82
2023/08/17 07:20:23;;;;;;;8.65;1.80;;;18.80;99.90;;;;;;5084615;28;20127;-81
2023/08/17 07:22:49;;;;;;;7.03;1.65;;;19.10;99.90;;;;;;5063640;28;20036;-78
2023/08/17 07:25:15;;;;;;;4.20;1.50;;;19.40;99.90;;;;;;5065269;28;20487;-81
2023/08/17 07:27:41;;;;;;;5.55;1.55;;;19.60;99.90;;;;;;5039123;28;20040;-81
2023/08/17 07:30:07;;;;;;;7.72;1.60;;;19.80;99.90;;;;;;5073184;28;20119;-81
2023/08/17 07:32:34;;;;;;;6.57;1.40;;;19.90;99.90;;;;;;5083017;28;20040;-81
2023/08/17 07:35:00;;;;;;;3.55;1.45;;;20.10;99.90;;;;;;5084485;28;20070;-81
2023/08/17 07:37:32;;;;;;;5.03;1.20;;;20.10;99.90;;;;;;5083071;28;20681;-82
2023/08/17 07:39:58;;;;;;;5.05;1.30;;;20.10;99.90;;;;;;5058029;28;20110;-80
2023/08/17 07:42:24;;;;;;;5.70;1.52;;;20.20;99.90;;;;;;5055436;28;20106;-81
2023/08/17 07:44:50;;;;;;;5.88;1.65;;;20.40;99.90;;;;;;5063925;28;20117;-81
2023/08/17 07:47:15;;;;;;;3.95;1.30;;;20.50;99.90;;;;;;5083671;28;20414;-79
2023/08/17 07:49:41;;;;;;;3.90;1.30;;;20.40;99.90;;;;;;5061968;28;20044;-80
2023/08/17 07:52:07;;;;;;;4.45;1.25;;;20.30;99.90;;;;;;5065809;28;20036;-86
2023/08/17 07:54:33;;;;;;;3.80;1.70;;;20.40;99.90;;;;;;5075480;28;20045;-81
2023/08/17 07:56:59;;;;;;;3.85;1.50;;;20.40;99.90;;;;;;5045144;28;20518;-82
2023/08/17 07:59:25;;;;;;;4.07;1.42;;;20.30;99.90;;;;;;5075976;28;20048;-81
2023/08/17 08:01:50;;;;;;;4.50;2.10;;;20.50;99.90;;;;;;5059962;28;20430;-82
2023/08/17 08:04:16;;;;;;;4.97;1.38;;;20.70;99.90;;;;;;5090735;28;20044;-83
2023/08/17 08:06:42;;;;;;;3.35;1.10;;;20.90;99.90;;;;;;5066329;28;20033;-78
2023/08/17 08:09:08;;;;;;;7.60;1.48;;;20.90;99.90;;;;;;5058555;28;20569;-78
2023/08/17 08:11:34;;;;;;;5.38;1.48;;;21.00;99.90;;;;;;5058811;28;20048;-79
2023/08/17 08:14:00;;;;;;;2.92;1.25;;;20.90;99.90;;;;;;5075057;28;20055;-78
2023/08/17 08:16:27;;;;;;;4.35;1.40;;;20.80;99.90;;;;;;5077585;28;20047;-79
2023/08/17 08:18:53;;;;;;;3.08;1.20;;;20.70;99.90;;;;;;5085780;28;20032;-78
2023/08/17 08:21:18;;;;;;;3.70;1.27;;;20.70;99.90;;;;;;5062345;28;20042;-76
2023/08/17 08:23:44;;;;;;;5.55;1.42;;;20.60;99.90;;;;;;5046822;28;20135;-75
2023/08/17 08:26:10;;;;;;;4.63;1.20;;;20.30;99.90;;;;;;5056335;28;20044;-77
2023/08/17 08:28:35;;;;;;;2.75;1.30;;;20.10;99.90;;;;;;5067458;28;20040;-79
2023/08/17 08:31:03;;;;;;;4.40;1.10;;;19.90;99.90;;;;;;5062963;28;20265;-77
2023/08/17 08:33:28;;;;;;;5.35;1.40;;;19.70;99.90;;;;;;5081525;28;20036;-78
2023/08/17 08:35:54;;;;;;;4.15;1.10;;;19.60;99.90;;;;;;5080587;28;20519;-80
2023/08/17 08:38:20;;;;;;;4.15;1.20;;;19.40;99.90;;;;;;5066785;28;20047;-80
2023/08/17 08:40:47;;;;;;;4.45;1.13;;;19.40;99.90;;;;;;5064807;28;20362;-80
2023/08/17 08:43:14;;;;;;;2.92;1.08;;;19.40;99.90;;;;;;5061502;28;20449;-81
2023/08/17 08:45:44;;;;;;;2.70;1.15;;;19.60;99.90;;;;;;5085822;28;20043;-81
2023/08/17 08:48:11;;;;;;;5.13;1.73;;;19.60;99.90;;;;;;5044148;28;20040;-80
2023/08/17 08:50:40;;;;;;;4.32;1.48;;;19.70;99.90;;;;;;5046570;28;20119;-83
2023/08/17 08:53:13;;;;;;;4.75;1.40;;;19.90;99.90;;;;;;5063606;28;20497;-82
2023/08/17 08:55:47;;;;;;;3.17;1.20;;;20.10;99.90;;;;;;5084621;28;20203;-82
2023/08/17 08:58:15;;;;;;;3.05;1.00;;;20.20;99.90;;;;;;5082880;28;20036;-83
2023/08/17 09:00:42;;;;;;;6.38;1.05;;;20.30;99.90;;;;;;5083276;28;20051;-82
2023/08/17 09:03:08;;;;;;;7.47;1.30;;;20.40;99.90;;;;;;5056678;28;20458;-83
2023/08/17 09:05:35;;;;;;;5.25;1.38;;;20.60;99.90;;;;;;5070074;28;20114;-84
2023/08/17 09:08:02;;;;;;;4.35;1.83;;;20.80;99.90;;;;;;5084167;28;20036;-81
2023/08/17 09:10:28;;;;;;;4.65;1.27;;;20.80;99.90;;;;;;5078369;28;20391;-84
2023/08/17 09:12:54;;;;;;;5.68;1.50;;;20.60;99.90;;;;;;5081449;28;20036;-81
2023/08/17 09:15:19;;;;;;;4.40;1.48;;;20.60;99.90;;;;;;5065446;28;20083;-80
2023/08/17 09:17:47;;;;;;;4.35;1.48;;;20.80;99.90;;;;;;5063935;28;20044;-82
2023/08/17 09:20:39;;;;;;;4.55;1.30;;;21.20;99.90;;;;;;5064500;28;20050;-80
2023/08/17 09:23:12;;;;;;;3.72;1.25;;;21.50;99.90;;;;;;5080014;28;20039;-81
2023/08/17 09:25:38;;;;;;;;;;;21.50;99.90;;;;;;5065921;28;20044;-81
2023/08/17 09:28:09;;;;;;;5.78;1.70;;;21.60;99.90;;;;;;5046817;28;19973;-81
2023/08/17 09:30:52;;;;;;;5.07;1.13;;;21.60;99.90;;;;;;5071790;28;20056;-80
2023/08/17 09:33:20;;;;;;;2.63;1.10;;;21.60;99.90;;;;;;5093629;28;20041;-80
2023/08/17 09:35:46;;;;;;;7.88;1.30;;;21.50;99.90;;;;;;5089276;28;20496;-80
2023/08/17 09:38:11;;;;;;;5.20;1.20;;;21.50;99.90;;;;;;5069406;28;20048;-80
2023/08/17 09:40:37;;;;;;;2.90;1.10;;;21.40;99.90;;;;;;5087735;28;20529;-79
2023/08/17 09:43:04;;;;;;;5.50;1.40;;;21.50;99.90;;;;;;5065407;28;20032;-81
2023/08/17 09:45:31;;;;;;;7.47;1.27;;;21.40;99.90;;;;;;5081576;28;20048;-79
2023/08/17 09:48:00;;;;;;;4.82;1.48;;;21.40;99.90;;;;;;5083996;28;20104;-82
2023/08/17 09:50:25;;;;;;;4.95;1.52;;;21.20;99.90;;;;;;5062224;28;20397;-82
2023/08/17 09:52:54;;;;;;;4.43;1.58;;;21.20;99.90;;;;;;5063321;28;20036;-79
2023/08/17 09:55:23;;;;;;;3.80;1.17;;;21.10;99.90;;;;;;5055535;28;20526;-83
2023/08/17 09:57:52;;;;;;;7.22;1.55;;;21.00;99.90;;;;;;5075900;28;20499;-84
2023/08/17 10:00:19;;;;;;;6.35;1.45;;;21.00;99.90;;;;;;5084265;28;20048;-82
2023/08/17 10:02:47;;;;;;;3.22;1.40;;;21.00;99.90;;;;;;5059830;28;20064;-79
2023/08/17 10:05:13;;;;;;;4.32;1.70;;;21.20;99.90;;;;;;5080582;28;20516;-82
2023/08/17 10:07:46;;;;;;;3.70;1.25;;;21.50;99.90;;;;;;5048914;28;20032;-83
2023/08/17 10:10:13;;;;;;;4.10;1.20;;;21.80;99.90;;;;;;5066374;28;20063;-83
2023/08/17 10:12:53;;;;;;;9.23;2.03;;;21.90;99.90;;;;;;5051556;28;20036;-83
2023/08/17 10:15:19;;;;;;;7.00;1.77;;;21.90;99.90;;;;;;5081990;28;20517;-82
2023/08/17 10:18:22;;;;;;;4.80;1.25;;;21.80;99.90;;;;;;5068970;28;20040;-81
2023/08/17 10:21:13;;;;;;;4.55;1.40;;;21.70;99.90;;;;;;5081146;28;20655;-81
2023/08/17 10:23:40;;;;;;;4.35;1.60;;;21.50;99.90;;;;;;5071731;28;20109;-82
2023/08/17 10:26:08;;;;;;;4.35;1.60;;;21.40;99.90;;;;;;5059960;28;20298;-85
2023/08/17 10:28:34;;;;;;;4.13;1.40;;;21.50;99.90;;;;;;5062539;28;20071;-83
2023/08/17 10:31:00;;;;;;;3.65;1.45;;;21.40;99.90;;;;;;5066618;28;20079;-80
2023/08/17 10:33:27;;;;;;;7.50;1.90;;;21.50;99.90;;;;;;5079422;28;20047;-81
2023/08/17 10:35:54;;;;;;;5.57;1.70;;;21.50;99.90;;;;;;5069128;28;20062;-82
2023/08/17 10:38:19;;;;;;;7.82;1.88;;;21.50;99.90;;;;;;5090881;28;20051;-83
2023/08/17 10:41:03;;;;;;;5.22;1.30;;;21.70;99.90;;;;;;5061271;28;20028;-84
2023/08/17 10:43:34;;;;;;;3.25;1.10;;;21.90;99.90;;;;;;5079172;28;20064;-83
2023/08/17 10:46:16;;;;;;;3.35;1.40;;;22.00;99.90;;;;;;5048858;28;20036;-84
2023/08/17 10:48:44;;;;;;;4.13;1.27;;;22.30;99.90;;;;;;5075211;28;21446;-83
2023/08/17 10:51:13;;;;;;;6.43;1.77;;;22.30;99.90;;;;;;5060859;28;20294;-83
2023/08/17 10:53:43;;;;;;;6.38;1.30;;;22.30;99.90;;;;;;5057132;28;20052;-86
2023/08/17 10:56:12;;;;;;;6.43;1.60;;;22.20;99.90;;;;;;5084894;28;20105;-83
2023/08/17 10:58:38;;;;;;;7.43;1.80;;;22.00;99.90;;;;;;5058722;28;20510;-83
2023/08/17 11:01:04;;;;;;;4.22;1.50;;;21.80;99.90;;;;;;5075777;28;20119;-82
2023/08/17 11:03:30;;;;;;;4.47;1.65;;;21.70;99.90;;;;;;5077092;28;20038;-83
2023/08/17 11:05:56;;;;;;;8.05;2.25;;;21.70;99.90;;;;;;5046808;28;20139;-87
2023/08/17 11:08:34;;;;;;;7.38;1.60;;;21.80;99.90;;;;;;5078986;28;20036;-84
2023/08/17 11:11:10;;;;;;;5.13;1.70;;;21.90;99.90;;;;;;5078068;28;20459;-84
2023/08/17 11:13:41;;;;;;;7.30;2.00;;;21.80;99.90;;;;;;5082532;28;20054;-84
2023/08/17 11:16:09;;;;;;;9.25;2.00;;;21.70;99.90;;;;;;5066830;28;20036;-84
2023/08/17 11:18:35;;;;;;;7.13;1.75;;;21.60;99.90;;;;;;5082953;28;20067;-83
2023/08/17 11:21:05;;;;;;;4.22;1.50;;;21.60;99.90;;;;;;5082561;28;20036;-83
2023/08/17 11:23:34;;;;;;;6.90;1.95;;;21.50;99.90;;;;;;5069691;28;20048;-84
2023/08/17 11:26:01;;;;;;;6.15;2.15;;;21.50;99.90;;;;;;5051323;28;20044;-88
2023/08/17 11:28:33;;;;;;;5.05;1.67;;;21.50;99.90;;;;;;5059118;28;20037;-87
2023/08/17 11:31:03;;;;;;;5.32;1.88;;;21.60;99.90;;;;;;5058670;28;20035;-84
2023/08/17 11:33:31;;;;;;;4.25;1.55;;;21.80;99.90;;;;;;5083547;28;20511;-83
2023/08/17 11:35:57;;;;;;;7.97;1.63;;;21.90;99.90;;;;;;5060014;28;20039;-87
2023/08/17 11:38:23;;;;;;;4.40;2.00;;;21.90;99.90;;;;;;5062771;28;20507;-83
2023/08/17 11:40:52;;;;;;;7.38;1.83;;;21.80;99.90;;;;;;5062101;28;20064;-85
2023/08/17 11:43:20;;;;;;;9.48;1.90;;;21.90;99.90;;;;;;5049319;28;20079;-82
2023/08/17 11:45:46;;;;;;;5.78;1.50;;;21.90;99.90;;;;;;5086660;28;20535;-87
2023/08/17 11:48:12;;;;;;;6.85;1.85;;;21.80;99.90;;;;;;5060647;28;20041;-85
2023/08/17 11:50:39;;;;;;;6.60;1.70;;;21.80;99.90;;;;;;5071432;28;20060;-84
2023/08/17 11:53:05;;;;;;;7.53;1.92;;;21.80;99.90;;;;;;5064175;28;20119;-83
2023/08/17 11:55:31;;;;;;;8.18;1.70;;;21.70;99.90;;;;;;5080481;28;20270;-86
2023/08/17 11:57:56;;;;;;;5.65;1.90;;;21.70;99.90;;;;;;5058642;28;20298;-76
2023/08/17 12:00:22;;;;;;;5.47;1.58;;;21.70;99.90;;;;;;5063934;28;20127;-83
2023/08/17 12:02:52;;;;;;;5.70;1.70;;;21.60;99.90;;;;;;5044411;28;20036;-82
2023/08/17 12:05:26;;;;;;;5.82;1.85;;;21.70;99.90;;;;;;5075688;28;22061;-73
2023/08/17 12:07:55;;;;;;;8.63;2.22;;;21.80;99.90;;;;;;5051353;28;20131;-77
2023/08/17 12:10:24;;;;;;;8.55;2.30;;;21.90;99.90;;;;;;5076541;28;20044;-80
2023/08/17 12:12:50;;;;;;;7.10;2.20;;;21.90;99.90;;;;;;5054426;28;20035;-79
2023/08/17 12:15:17;;;;;;;4.38;1.65;;;21.80;99.90;;;;;;5085520;28;20406;-78
2023/08/17 12:17:47;;;;;;;7.38;1.92;;;21.80;99.90;;;;;;5069148;28;20041;-80
2023/08/17 12:20:17;;;;;;;5.53;1.83;;;21.70;99.90;;;;;;5052962;28;20219;-78
2023/08/17 12:22:43;;;;;;;5.93;1.88;;;21.60;99.90;;;;;;5068631;28;20048;-80
2023/08/17 12:25:09;;;;;;;6.45;2.08;;;21.60;99.90;;;;;;5042252;28;20118;-81
2023/08/17 12:27:35;;;;;;;4.95;2.00;;;21.50;99.90;;;;;;5052086;28;20058;-77
2023/08/17 12:30:01;;;;;;;4.15;1.77;;;21.60;99.90;;;;;;5065622;28;20181;-78
2023/08/17 12:32:27;;;;;;;6.72;2.67;;;21.60;99.90;;;;;;5070806;28;20043;-80
2023/08/17 12:34:53;;;;;;;8.25;2.13;;;21.60;99.90;;;;;;5076756;28;20044;-80
2023/08/17 12:37:20;;;;;;;8.15;2.30;;;21.50;99.90;;;;;;5056046;28;20079;-79
2023/08/17 12:39:47;;;;;;;6.18;2.00;;;21.60;99.90;;;;;;5070322;28;20496;-81
2023/08/17 12:42:13;;;;;;;7.32;2.65;;;21.50;99.90;;;;;;5075023;28;20052;-80
2023/08/17 12:44:40;;;;;;;6.50;1.98;;;21.50;99.90;;;;;;5061458;28;20044;-81